Time;durP1;ratioP1;P1;durP2;ratioP2;P2;SDS_P1;SDS_P2;PMS_P1;PMS_P2;Temp;Humidity;BMP_temperature;BMP_pressure;BME280_temperature;BME280_humidity;BME280_pressure;Samples;Min_cycle;Max_cycle;Signal;HPM_P1;HPM_P2
2022/11/10 00:00:29;;;;;;;11.97;4.10;;;11.10;99.90;;;;;;5073498;28;20185;-70
2022/11/10 00:02:54;;;;;;;13.13;3.97;;;11.20;99.90;;;;;;5072253;28;20190;-70
2022/11/10 00:05:20;;;;;;;12.60;4.40;;;11.20;99.90;;;;;;5073649;28;20169;-70
2022/11/10 00:07:46;;;;;;;14.73;4.53;;;11.20;99.90;;;;;;5073518;28;20632;-69
2022/11/10 00:10:12;;;;;;;11.33;4.80;;;11.20;99.90;;;;;;5073430;28;20212;-70
2022/11/10 00:12:38;;;;;;;7.93;4.17;;;11.20;99.90;;;;;;5073753;28;20174;-70
2022/11/10 00:17:48;;;;;;;10.97;4.53;;;11.30;99.90;;;;;;5073568;28;20200;-70
2022/11/10 00:20:14;;;;;;;13.93;4.50;;;11.20;99.90;;;;;;5073696;28;20248;-70
2022/11/10 00:22:40;;;;;;;9.50;4.33;;;11.30;99.90;;;;;;5072283;28;20181;-70
2022/11/10 00:25:07;;;;;;;11.60;4.27;;;11.30;99.90;;;;;;5073658;28;20170;-70
2022/11/10 00:27:33;;;;;;;14.83;4.60;;;11.30;99.90;;;;;;5072157;28;20548;-70
2022/11/10 00:29:59;;;;;;;9.13;4.47;;;11.30;99.90;;;;;;5073775;28;20185;-70
2022/11/10 00:32:24;;;;;;;12.80;4.53;;;11.30;99.90;;;;;;5072195;28;20188;-70
2022/11/10 00:34:50;;;;;;;12.70;4.27;;;11.20;99.90;;;;;;5075326;28;20193;-70
2022/11/10 00:37:16;;;;;;;10.63;4.07;;;11.20;99.90;;;;;;5077399;28;20255;-70
2022/11/10 00:39:42;;;;;;;12.23;4.33;;;11.20;99.90;;;;;;5076892;28;20239;-70
2022/11/10 00:42:07;;;;;;;12.67;4.33;;;11.20;99.90;;;;;;5075968;28;20174;-69
2022/11/10 00:44:33;;;;;;;14.97;4.80;;;11.10;99.90;;;;;;5077078;28;20182;-70
2022/11/10 00:46:59;;;;;;;12.37;4.77;;;11.10;99.90;;;;;;5075792;28;20236;-71
2022/11/10 00:49:26;;;;;;;8.10;4.07;;;11.10;99.90;;;;;;5077203;28;20239;-70
2022/11/10 00:51:52;;;;;;;10.00;4.43;;;11.00;99.90;;;;;;5077306;28;20194;-70
2022/11/10 00:54:18;;;;;;;13.47;4.97;;;11.00;99.90;;;;;;5076983;28;20217;-70
2022/11/10 00:56:43;;;;;;;10.47;4.27;;;10.90;99.90;;;;;;5076897;28;20269;-70
2022/11/10 00:59:09;;;;;;;12.17;4.70;;;11.00;99.90;;;;;;5076587;28;20651;-70
2022/11/10 01:01:35;;;;;;;17.53;4.77;;;10.90;99.90;;;;;;5076613;28;20300;-70
2022/11/10 01:04:01;;;;;;;9.67;4.00;;;11.00;99.90;;;;;;5077349;28;20174;-70
2022/11/10 01:06:27;;;;;;;10.57;4.60;;;11.00;99.90;;;;;;5076794;28;20197;-70
2022/11/10 01:08:52;;;;;;;15.20;4.10;;;11.00;99.90;;;;;;5074879;28;20668;-71
2022/11/10 01:11:26;;;;;;;14.07;4.07;;;10.90;99.90;;;;;;5074837;28;20257;-71
2022/11/10 01:13:54;;;;;;;15.60;4.43;;;10.90;99.90;;;;;;5074798;28;20195;-71
2022/11/10 01:16:26;;;;;;;14.27;4.67;;;10.90;99.90;;;;;;5075862;28;20220;-71
2022/11/10 01:18:54;;;;;;;11.87;4.50;;;10.90;99.90;;;;;;5075925;28;20264;-71
2022/11/10 01:21:21;;;;;;;11.87;4.33;;;10.90;99.90;;;;;;5075961;28;20170;-70
2022/11/10 01:23:47;;;;;;;11.90;3.80;;;10.90;99.90;;;;;;5075939;28;20174;-70
2022/11/10 01:26:14;;;;;;;7.97;4.50;;;10.80;99.90;;;;;;5075119;28;20548;-70
2022/11/10 01:28:39;;;;;;;13.37;4.10;;;10.80;99.90;;;;;;5076247;28;20162;-71
2022/11/10 01:31:08;;;;;;;16.60;4.80;;;10.80;99.90;;;;;;5075651;28;20727;-71
2022/11/10 01:33:35;;;;;;;12.93;3.93;;;10.80;99.90;;;;;;5074386;28;20642;-71
2022/11/10 01:36:01;;;;;;;14.27;5.03;;;10.80;99.90;;;;;;5075649;28;20197;-71
2022/11/10 01:38:29;;;;;;;16.37;5.00;;;10.80;99.90;;;;;;5075772;28;20174;-71
2022/11/10 01:40:56;;;;;;;12.93;4.53;;;10.80;99.90;;;;;;5075430;28;20206;-71
2022/11/10 01:43:22;;;;;;;14.53;4.97;;;10.80;99.90;;;;;;5075600;28;20227;-71
2022/11/10 01:45:55;;;;;;;10.43;4.47;;;10.80;99.90;;;;;;5075254;28;20197;-71
2022/11/10 01:48:38;;;;;;;10.50;4.70;;;10.80;99.90;;;;;;5075625;28;20185;-71
2022/11/10 01:51:14;;;;;;;13.40;4.30;;;10.80;99.90;;;;;;5075449;28;20227;-71
2022/11/10 01:53:45;;;;;;;18.30;4.37;;;10.80;99.90;;;;;;5073972;28;20173;-71
2022/11/10 01:56:13;;;;;;;15.83;4.93;;;10.70;99.90;;;;;;5075244;28;20192;-71
2022/11/10 01:58:46;;;;;;;17.43;4.80;;;10.70;99.90;;;;;;5074362;28;20178;-71
2022/11/10 02:01:12;;;;;;;14.27;4.20;;;10.60;99.90;;;;;;5075945;28;20150;-71
2022/11/10 02:03:44;;;;;;;14.30;4.83;;;10.60;99.90;;;;;;5073861;28;20171;-71
2022/11/10 02:06:10;;;;;;;10.63;5.37;;;10.60;99.90;;;;;;5073895;28;20649;-70
2022/11/10 02:08:37;;;;;;;13.47;4.63;;;10.60;99.90;;;;;;5075008;28;20660;-71
2022/11/10 02:11:03;;;;;;;20.80;4.87;;;10.60;99.90;;;;;;5074879;28;20178;-71
2022/11/10 02:13:30;;;;;;;10.77;4.50;;;10.60;99.90;;;;;;5075418;28;20578;-71
2022/11/10 02:15:55;;;;;;;12.03;4.03;;;10.60;99.90;;;;;;5074813;28;20201;-70
2022/11/10 02:18:21;;;;;;;12.97;4.37;;;10.60;99.90;;;;;;5073592;28;20182;-71
2022/11/10 02:20:47;;;;;;;12.73;4.67;;;10.60;99.90;;;;;;5073655;28;20174;-71
2022/11/10 02:23:33;;;;;;;11.67;4.27;;;10.50;99.90;;;;;;5074757;28;20170;-70
2022/11/10 02:26:00;;;;;;;23.20;4.60;;;10.50;99.90;;;;;;5074682;28;20177;-71
2022/11/10 02:28:26;;;;;;;12.67;4.63;;;10.50;99.90;;;;;;5073468;28;20292;-71
2022/11/10 02:30:53;;;;;;;11.60;4.43;;;10.50;99.90;;;;;;5074456;28;20227;-71
2022/11/10 02:33:19;;;;;;;12.70;4.50;;;10.50;99.90;;;;;;5074544;28;20223;-71
2022/11/10 02:35:46;;;;;;;11.53;4.50;;;10.40;99.90;;;;;;5074575;28;20272;-71
2022/11/10 02:38:12;;;;;;;16.87;4.57;;;10.40;99.90;;;;;;5074334;28;20190;-71
2022/11/10 02:40:38;;;;;;;14.97;4.43;;;10.40;99.90;;;;;;5074320;28;20177;-71
2022/11/10 02:43:06;;;;;;;11.10;4.30;;;10.40;99.90;;;;;;5074906;28;20154;-71
2022/11/10 02:45:31;;;;;;;13.73;4.70;;;10.30;99.90;;;;;;5073048;28;20193;-71
2022/11/10 02:47:57;;;;;;;15.37;5.30;;;10.30;99.90;;;;;;5074134;28;20400;-71
2022/11/10 02:50:23;;;;;;;13.03;4.67;;;10.30;99.90;;;;;;5074081;28;20665;-70
2022/11/10 02:52:49;;;;;;;17.60;4.90;;;10.30;99.90;;;;;;5073148;28;20741;-71
2022/11/10 02:55:14;;;;;;;7.63;4.30;;;10.30;99.90;;;;;;5073980;28;20272;-71
2022/11/10 02:57:40;;;;;;;13.50;4.63;;;10.30;99.90;;;;;;5073567;28;20193;-70
2022/11/10 03:00:07;;;;;;;11.37;4.70;;;10.30;99.90;;;;;;5074215;28;20221;-71
2022/11/10 03:02:33;;;;;;;14.27;5.10;;;10.20;99.90;;;;;;5072684;28;20174;-71
2022/11/10 03:04:59;;;;;;;13.37;5.33;;;10.30;99.90;;;;;;5074158;28;20203;-71
2022/11/10 03:07:24;;;;;;;13.87;4.83;;;10.30;99.90;;;;;;5072667;28;20289;-70
2022/11/10 03:09:50;;;;;;;13.17;4.30;;;10.20;99.90;;;;;;5072459;28;20236;-70
2022/11/10 03:12:16;;;;;;;14.33;4.97;;;10.20;99.90;;;;;;5073710;28;20311;-71
2022/11/10 03:14:42;;;;;;;17.80;4.77;;;10.20;99.90;;;;;;5072507;28;20573;-71
2022/11/10 03:17:08;;;;;;;13.20;4.47;;;10.20;99.90;;;;;;5073969;28;20193;-71
2022/11/10 03:19:34;;;;;;;12.63;4.73;;;10.20;99.90;;;;;;5073727;28;20174;-71
2022/11/10 03:22:00;;;;;;;13.07;5.00;;;10.20;99.90;;;;;;5072622;28;20526;-71
2022/11/10 03:24:26;;;;;;;14.03;4.47;;;10.30;99.90;;;;;;5073630;28;20219;-71
2022/11/10 03:26:52;;;;;;;14.60;4.90;;;10.30;99.90;;;;;;5073879;28;20185;-71
2022/11/10 03:29:18;;;;;;;10.83;4.40;;;10.30;99.90;;;;;;5074011;28;20529;-71
2022/11/10 03:31:43;;;;;;;13.77;4.67;;;10.20;99.90;;;;;;5074186;28;20158;-71
2022/11/10 03:34:09;;;;;;;16.30;4.23;;;10.20;99.90;;;;;;5073806;28;20192;-71
2022/11/10 03:36:35;;;;;;;16.70;4.63;;;10.20;99.90;;;;;;5074531;28;20209;-71
2022/11/10 03:39:01;;;;;;;15.77;4.90;;;10.20;99.90;;;;;;5073831;28;20173;-70
2022/11/10 03:41:26;;;;;;;12.20;4.43;;;10.20;99.90;;;;;;5074119;28;20214;-70
2022/11/10 03:43:52;;;;;;;14.23;4.77;;;10.20;99.90;;;;;;5073648;28;20177;-70
2022/11/10 03:46:18;;;;;;;11.87;4.30;;;10.20;99.90;;;;;;5073245;28;20209;-70
2022/11/10 03:48:44;;;;;;;14.33;5.10;;;10.20;99.90;;;;;;5073543;28;20178;-70
2022/11/10 03:51:10;;;;;;;15.17;5.27;;;10.20;99.90;;;;;;5073628;28;20184;-70
2022/11/10 03:53:35;;;;;;;15.17;4.93;;;10.20;99.90;;;;;;5073772;28;20174;-70
2022/11/10 03:56:03;;;;;;;12.30;4.57;;;10.20;99.90;;;;;;5072100;28;20200;-70
2022/11/10 03:58:28;;;;;;;17.13;5.17;;;10.20;99.90;;;;;;5073354;28;20171;-70
2022/11/10 04:00:55;;;;;;;13.50;4.73;;;10.20;99.90;;;;;;5073440;28;20188;-70
2022/11/10 04:03:21;;;;;;;12.70;4.77;;;10.20;99.90;;;;;;5073381;28;20172;-70
2022/11/10 04:15:40;;;;;;;12.73;4.50;;;10.20;99.90;;;;;;5078134;28;20216;-71
2022/11/10 04:16:44;;;;;;;15.50;5.30;;;10.10;99.90;;;;;;5077188;28;20223;-71
2022/11/10 04:19:10;;;;;;;15.10;5.47;;;10.10;99.90;;;;;;5077960;28;20178;-66
2022/11/10 04:21:36;;;;;;;13.13;5.13;;;10.10;99.90;;;;;;5077352;28;20611;-66
2022/11/10 04:24:02;;;;;;;17.23;5.40;;;10.10;99.90;;;;;;5077459;28;20178;-66
2022/11/10 04:26:27;;;;;;;21.47;6.10;;;10.10;99.90;;;;;;5077315;28;20186;-66
2022/11/10 04:28:55;;;;;;;17.67;5.43;;;10.10;99.90;;;;;;5076826;28;20546;-66
2022/11/10 04:31:23;;;;;;;17.10;6.07;;;10.10;99.90;;;;;;5076785;28;20249;-66
2022/11/10 04:33:50;;;;;;;16.60;5.43;;;10.10;99.90;;;;;;5076770;28;20196;-66
2022/11/10 04:36:19;;;;;;;24.17;6.60;;;10.10;99.90;;;;;;5075259;28;20221;-67
2022/11/10 04:38:44;;;;;;;14.37;5.60;;;10.10;99.90;;;;;;5076538;28;20174;-66
2022/11/10 04:41:11;;;;;;;17.87;5.63;;;10.10;99.90;;;;;;5076567;28;20249;-66
2022/11/10 04:43:37;;;;;;;17.93;6.87;;;10.20;99.90;;;;;;5076757;28;20739;-66
2022/11/10 04:46:04;;;;;;;13.97;5.87;;;10.20;99.90;;;;;;5076318;28;20200;-66
2022/11/10 04:48:30;;;;;;;14.40;5.97;;;10.20;99.90;;;;;;5076554;28;20204;-66
2022/11/10 04:50:56;;;;;;;17.10;5.50;;;10.20;99.90;;;;;;5076429;28;20180;-66
2022/11/10 04:53:24;;;;;;;21.17;6.10;;;10.20;99.90;;;;;;5076381;28;20181;-66
2022/11/10 04:55:50;;;;;;;16.10;5.57;;;10.20;99.90;;;;;;5076119;28;20692;-66
2022/11/10 04:58:16;;;;;;;10.83;5.73;;;10.20;99.90;;;;;;5076145;28;20261;-66
2022/11/10 05:00:42;;;;;;;18.03;6.30;;;10.30;99.90;;;;;;5076343;28;20654;-66
2022/11/10 05:03:10;;;;;;;16.37;5.53;;;10.30;99.90;;;;;;5076210;28;20182;-66
2022/11/10 05:05:36;;;;;;;20.10;6.30;;;10.30;99.90;;;;;;5076126;28;20170;-66
2022/11/10 05:08:02;;;;;;;16.30;5.80;;;10.30;99.90;;;;;;5076036;28;20281;-67
2022/11/10 05:10:28;;;;;;;10.90;5.53;;;10.30;99.90;;;;;;5075983;28;20174;-66
2022/11/10 05:12:55;;;;;;;11.00;5.53;;;10.20;99.90;;;;;;5075999;28;20599;-66
2022/11/10 05:15:22;;;;;;;16.13;6.43;;;10.20;99.90;;;;;;5075919;28;20197;-66
2022/11/10 05:17:53;;;;;;;16.43;5.23;;;10.20;99.90;;;;;;5074514;28;20193;-66
2022/11/10 05:20:20;;;;;;;13.23;5.93;;;10.20;99.90;;;;;;5075427;28;20161;-66
2022/11/10 05:23:36;;;;;;;19.40;6.53;;;10.10;99.90;;;;;;5074488;28;20269;-66
2022/11/10 05:25:36;;;;;;;14.73;6.10;;;10.10;99.90;;;;;;5075575;28;20664;-66
2022/11/10 05:28:02;;;;;;;18.57;6.40;;;10.10;99.90;;;;;;5075786;28;20280;-66
2022/11/10 05:30:28;;;;;;;19.40;6.10;;;10.10;99.90;;;;;;5074365;28;20634;-66
2022/11/10 05:32:54;;;;;;;18.13;5.83;;;10.10;99.90;;;;;;5076292;28;20178;-66
2022/11/10 05:35:21;;;;;;;13.40;6.17;;;10.00;99.90;;;;;;5075415;28;20209;-66
2022/11/10 05:37:46;;;;;;;21.57;6.03;;;10.00;99.90;;;;;;5075412;28;20197;-66
2022/11/10 05:40:12;;;;;;;21.10;6.83;;;10.00;99.90;;;;;;5075507;28;20700;-66
2022/11/10 05:42:45;;;;;;;14.87;6.13;;;10.00;99.90;;;;;;5075801;28;20184;-66
2022/11/10 05:45:11;;;;;;;19.47;6.57;;;10.00;99.90;;;;;;5075482;28;20190;-66
2022/11/10 05:47:37;;;;;;;21.77;6.87;;;10.00;99.90;;;;;;5075618;28;20236;-66
2022/11/10 05:50:03;;;;;;;19.00;5.97;;;10.00;99.90;;;;;;5075606;28;20174;-66
2022/11/10 05:52:29;;;;;;;15.87;5.70;;;10.00;99.90;;;;;;5075427;28;20227;-66
2022/11/10 05:54:54;;;;;;;15.10;5.90;;;10.00;99.90;;;;;;5075207;28;20197;-66
2022/11/10 05:57:21;;;;;;;16.23;6.40;;;9.90;99.90;;;;;;5075157;28;20277;-66
2022/11/10 05:59:46;;;;;;;14.70;6.70;;;9.90;99.90;;;;;;5075279;28;20179;-66
2022/11/10 06:02:12;;;;;;;24.90;7.03;;;9.90;99.90;;;;;;5074959;28;20170;-66
2022/11/10 06:04:38;;;;;;;20.80;7.27;;;9.90;99.90;;;;;;5073652;28;20665;-67
2022/11/10 06:07:04;;;;;;;22.70;8.67;;;9.80;99.90;;;;;;5074811;28;20265;-67
2022/11/10 06:09:29;;;;;;;22.93;7.77;;;9.80;99.90;;;;;;5074868;28;20673;-67
2022/11/10 06:11:55;;;;;;;18.63;7.30;;;9.80;99.90;;;;;;5074773;28;20186;-66
2022/11/10 06:14:21;;;;;;;18.10;7.10;;;9.80;99.90;;;;;;5074937;28;20170;-67
2022/11/10 06:16:46;;;;;;;22.13;7.13;;;9.80;99.90;;;;;;5074472;28;20213;-67
2022/11/10 06:19:12;;;;;;;17.53;6.77;;;9.80;99.90;;;;;;5073332;28;20170;-66
2022/11/10 06:21:38;;;;;;;20.43;6.33;;;9.80;99.90;;;;;;5074581;28;20174;-66
2022/11/10 06:24:03;;;;;;;23.80;6.43;;;9.80;99.90;;;;;;5074672;28;20198;-72
2022/11/10 06:26:29;;;;;;;18.93;7.40;;;9.80;99.90;;;;;;5074785;28;20198;-67
2022/11/10 06:28:56;;;;;;;15.73;6.20;;;9.80;99.90;;;;;;5073104;28;20202;-67
2022/11/10 06:31:22;;;;;;;17.50;6.50;;;9.90;99.90;;;;;;5073740;28;20228;-67
2022/11/10 06:33:48;;;;;;;16.33;6.73;;;9.90;99.90;;;;;;5074066;28;20174;-67
2022/11/10 06:36:14;;;;;;;22.90;6.80;;;9.90;99.90;;;;;;5074138;28;20741;-67
2022/11/10 06:38:40;;;;;;;17.33;6.33;;;9.90;99.90;;;;;;5072905;28;20276;-66
2022/11/10 06:41:06;;;;;;;17.60;6.73;;;9.90;99.90;;;;;;5074107;28;20253;-67
2022/11/10 06:43:32;;;;;;;20.23;7.47;;;9.90;99.90;;;;;;5074119;28;20170;-67
2022/11/10 06:45:57;;;;;;;14.97;6.70;;;9.90;99.90;;;;;;5072577;28;20632;-68
2022/11/10 06:48:23;;;;;;;20.80;7.37;;;9.90;99.90;;;;;;5074207;28;20554;-66
2022/11/10 06:50:49;;;;;;;15.17;7.00;;;9.90;99.90;;;;;;5074251;28;20197;-73
2022/11/10 06:53:15;;;;;;;14.67;8.00;;;9.90;99.90;;;;;;5072963;28;20180;-66
2022/11/10 06:55:41;;;;;;;20.03;7.40;;;9.80;99.90;;;;;;5073705;28;20185;-66
2022/11/10 06:58:08;;;;;;;19.57;7.30;;;9.80;99.90;;;;;;5073892;28;20194;-66
2022/11/10 07:00:34;;;;;;;13.77;6.70;;;9.80;99.90;;;;;;5074046;28;20176;-66
2022/11/10 07:03:11;;;;;;;16.40;7.37;;;9.80;99.90;;;;;;5072353;28;20174;-66
2022/11/10 07:05:37;;;;;;;20.23;7.13;;;9.80;99.90;;;;;;5073999;28;20158;-66
2022/11/10 07:08:05;;;;;;;14.93;7.47;;;9.80;99.90;;;;;;5073636;28;20194;-66
2022/11/10 07:10:31;;;;;;;17.53;7.53;;;9.80;99.90;;;;;;5073721;28;20269;-66
2022/11/10 07:12:59;;;;;;;18.87;7.03;;;9.80;99.90;;;;;;5072432;28;20212;-66
2022/11/10 07:15:25;;;;;;;16.93;8.37;;;9.80;99.90;;;;;;5073489;28;20201;-66
2022/11/10 07:17:51;;;;;;;21.93;7.37;;;9.70;99.90;;;;;;5073539;28;20593;-66
2022/11/10 07:20:17;;;;;;;18.47;8.30;;;9.80;99.90;;;;;;5073844;28;20166;-66
2022/11/10 07:22:43;;;;;;;21.87;7.73;;;9.80;99.90;;;;;;5072293;28;20228;-66
2022/11/10 07:25:09;;;;;;;20.83;8.00;;;9.90;99.90;;;;;;5073572;28;20170;-66
2022/11/10 07:27:34;;;;;;;20.23;7.60;;;9.90;99.90;;;;;;5072095;28;20281;-66
2022/11/10 07:30:00;;;;;;;19.53;7.40;;;9.90;99.90;;;;;;5072196;28;20177;-66
2022/11/10 07:32:26;;;;;;;15.67;8.10;;;10.00;99.90;;;;;;5073632;28;20174;-66
2022/11/10 07:34:52;;;;;;;24.17;8.17;;;10.00;99.90;;;;;;5073354;28;20201;-66
2022/11/10 07:37:18;;;;;;;22.60;8.13;;;10.10;99.90;;;;;;5073278;28;20197;-66
2022/11/10 07:39:44;;;;;;;17.50;8.20;;;10.20;99.90;;;;;;5071834;28;20263;-66
2022/11/10 07:42:10;;;;;;;18.07;7.90;;;10.20;99.90;;;;;;5073391;28;20631;-66
2022/11/10 07:44:36;;;;;;;24.80;7.73;;;10.30;99.90;;;;;;5071906;28;20174;-66
2022/11/10 07:47:01;;;;;;;16.87;8.50;;;10.30;99.90;;;;;;5073132;28;20597;-66
2022/11/10 07:49:27;;;;;;;18.47;8.13;;;10.30;99.90;;;;;;5073227;28;20170;-66
2022/11/10 07:51:53;;;;;;;24.50;8.57;;;10.40;99.90;;;;;;5073220;28;20176;-66
2022/11/10 07:54:19;;;;;;;16.67;7.40;;;10.40;99.90;;;;;;5071789;28;20650;-66
2022/11/10 07:56:44;;;;;;;13.90;7.40;;;10.40;99.90;;;;;;5073084;28;20213;-66
2022/11/10 07:59:10;;;;;;;17.43;7.13;;;10.50;99.90;;;;;;5071897;28;20261;-66
2022/11/10 08:01:36;;;;;;;11.70;6.70;;;10.60;99.90;;;;;;5073364;28;20173;-66
2022/11/10 08:04:02;;;;;;;17.93;7.40;;;10.60;99.90;;;;;;5073325;28;20220;-66
2022/11/10 08:06:27;;;;;;;19.33;7.20;;;10.70;99.90;;;;;;5073411;28;20742;-71
2022/11/10 08:08:53;;;;;;;15.90;6.60;;;10.80;99.90;;;;;;5086697;28;20188;-67
2022/11/10 08:11:19;;;;;;;16.23;6.97;;;10.90;99.90;;;;;;5093069;28;20194;-67
2022/11/10 08:13:44;;;;;;;17.17;7.80;;;10.90;99.90;;;;;;5093218;28;20234;-67
2022/11/10 08:16:10;;;;;;;22.90;7.53;;;11.00;99.90;;;;;;5093301;28;20196;-68
2022/11/10 08:18:36;;;;;;;20.97;6.90;;;10.90;99.90;;;;;;5093183;28;20169;-68
2022/11/10 08:21:03;;;;;;;18.07;7.63;;;10.90;99.90;;;;;;5091841;28;20204;-67
2022/11/10 08:23:28;;;;;;;19.23;7.37;;;11.00;99.90;;;;;;5091995;28;20169;-66
2022/11/10 08:25:58;;;;;;;20.00;6.80;;;11.00;99.90;;;;;;5091800;28;20176;-66
2022/11/10 08:28:25;;;;;;;20.17;6.50;;;11.00;99.90;;;;;;5091872;28;20270;-66
2022/11/10 08:30:51;;;;;;;15.87;6.30;;;11.00;99.90;;;;;;5092015;28;20169;-66
2022/11/10 08:33:18;;;;;;;22.40;7.53;;;11.00;99.90;;;;;;5091968;28;20168;-70
2022/11/10 08:35:47;;;;;;;22.87;7.47;;;11.00;99.90;;;;;;5091961;28;20235;-67
2022/11/10 08:38:19;;;;;;;19.53;8.17;;;10.90;99.90;;;;;;5085656;28;20202;-69
2022/11/10 08:40:45;;;;;;;18.07;6.80;;;11.00;99.90;;;;;;5072949;28;20161;-67
2022/11/10 08:43:12;;;;;;;23.37;8.00;;;11.00;99.90;;;;;;5072766;28;20174;-67
2022/11/10 08:45:41;;;;;;;20.60;7.77;;;11.10;99.90;;;;;;5072946;28;20194;-67
2022/11/10 08:48:09;;;;;;;18.87;7.73;;;11.10;99.90;;;;;;5055369;28;20230;-70
2022/11/10 08:50:35;;;;;;;22.03;6.93;;;11.10;99.90;;;;;;5071508;28;20173;-70
2022/11/10 08:53:02;;;;;;;21.80;7.63;;;11.20;99.90;;;;;;5072947;28;20201;-71
2022/11/10 08:55:28;;;;;;;18.20;7.43;;;11.30;99.90;;;;;;5073885;28;20240;-71
2022/11/10 08:57:59;;;;;;;15.93;6.90;;;11.30;99.90;;;;;;5076643;28;20213;-70
2022/11/10 09:00:27;;;;;;;16.90;6.83;;;11.40;99.90;;;;;;5076438;28;20207;-69
2022/11/10 09:03:01;;;;;;;19.03;7.63;;;11.50;99.90;;;;;;5076349;28;20177;-69
2022/11/10 09:05:27;;;;;;;16.73;7.03;;;11.60;99.90;;;;;;5076578;28;20165;-70
2022/11/10 09:07:53;;;;;;;19.83;7.37;;;11.60;99.90;;;;;;5076226;28;20251;-70
2022/11/10 09:10:18;;;;;;;14.93;6.83;;;11.70;99.90;;;;;;5076399;28;20184;-70
2022/11/10 09:12:44;;;;;;;19.47;6.97;;;11.70;99.90;;;;;;5076422;28;20170;-70
2022/11/10 09:15:11;;;;;;;16.90;6.43;;;11.80;99.90;;;;;;5076154;28;20189;-71
2022/11/10 09:17:39;;;;;;;22.57;6.67;;;11.90;99.90;;;;;;5075036;28;20281;-70
2022/11/10 09:20:06;;;;;;;14.85;5.90;;;11.90;99.90;;;;;;5075960;28;20710;-70
2022/11/10 09:22:34;;;;;;;17.43;6.17;;;11.90;99.90;;;;;;5076268;28;20192;-70
2022/11/10 09:25:00;;;;;;;15.80;5.80;;;12.00;99.90;;;;;;5076059;28;20178;-70
2022/11/10 09:27:26;;;;;;;15.48;6.22;;;12.00;99.90;;;;;;5076302;28;20699;-70
2022/11/10 09:29:52;;;;;;;17.15;6.47;;;12.10;99.90;;;;;;5076233;28;20177;-70
2022/11/10 09:32:17;;;;;;;21.47;5.83;;;12.10;99.90;;;;;;5074737;28;20178;-70
2022/11/10 09:34:43;;;;;;;21.87;5.87;;;12.10;99.90;;;;;;5076220;28;20319;-70
2022/11/10 09:37:09;;;;;;;14.18;5.65;;;12.10;99.90;;;;;;5075761;28;20222;-71
2022/11/10 09:39:35;;;;;;;10.30;5.43;;;12.20;99.90;;;;;;5075468;28;20272;-70
2022/11/10 09:42:02;;;;;;;14.30;5.93;;;12.20;99.90;;;;;;5074403;28;20178;-70
2022/11/10 09:44:50;;;;;;;18.80;5.18;;;12.30;99.90;;;;;;5075516;28;20174;-70
2022/11/10 09:47:21;;;;;;;12.00;5.53;;;12.30;99.90;;;;;;5075820;28;20280;-70
2022/11/10 09:49:59;;;;;;;17.33;5.23;;;12.40;99.90;;;;;;5075686;28;20205;-70
2022/11/10 09:52:28;;;;;;;19.05;5.40;;;12.40;99.90;;;;;;5075324;28;20158;-70
2022/11/10 09:55:09;;;;;;;15.43;4.93;;;12.50;99.90;;;;;;5075223;28;20196;-70
2022/11/10 09:57:36;;;;;;;12.18;5.53;;;12.50;99.90;;;;;;5075112;28;20197;-70
2022/11/10 10:00:03;;;;;;;14.05;5.07;;;12.50;99.90;;;;;;5073997;28;20538;-70
2022/11/10 10:02:36;;;;;;;22.85;5.72;;;12.60;99.90;;;;;;5073891;28;20592;-70
2022/11/10 10:05:31;;;;;;;18.08;6.03;;;12.70;99.90;;;;;;5075507;28;20170;-70
2022/11/10 10:08:14;;;;;;;14.98;5.30;;;12.80;99.90;;;;;;5074903;28;20206;-70
2022/11/10 10:10:43;;;;;;;14.27;5.40;;;12.90;99.90;;;;;;5073621;28;20189;-70
2022/11/10 10:13:26;;;;;;;14.85;5.47;;;13.00;99.90;;;;;;5073774;28;20196;-70
2022/11/10 10:16:19;;;;;;;16.47;5.43;;;13.00;99.90;;;;;;5075016;28;20205;-70
2022/11/10 10:18:57;;;;;;;15.70;5.60;;;13.00;99.90;;;;;;5075242;28;20591;-70
2022/11/10 10:21:31;;;;;;;15.63;5.38;;;13.00;99.90;;;;;;5073501;28;20235;-70
2022/11/10 10:24:01;;;;;;;14.82;5.38;;;13.20;99.90;;;;;;5074692;28;20203;-70
2022/11/10 10:26:36;;;;;;;18.00;5.22;;;13.40;99.90;;;;;;5073169;28;20201;-70
2022/11/10 10:29:09;;;;;;;15.35;5.65;;;13.40;99.90;;;;;;5074909;28;20189;-70
2022/11/10 10:31:44;;;;;;;15.48;4.38;;;13.50;99.90;;;;;;5073325;28;20232;-71
2022/11/10 10:34:15;;;;;;;13.48;5.07;;;13.50;99.90;;;;;;5074733;28;20165;-70
2022/11/10 10:36:43;;;;;;;18.80;5.00;;;13.50;99.90;;;;;;5074648;28;20693;-69
2022/11/10 10:39:14;;;;;;;19.10;5.00;;;13.50;99.90;;;;;;5089387;28;20185;-69
2022/11/10 10:41:42;;;;;;;19.70;5.25;;;13.40;99.90;;;;;;5094743;28;20158;-70
2022/11/10 10:44:17;;;;;;;14.93;4.80;;;13.50;99.90;;;;;;5094780;28;20220;-69
2022/11/10 10:46:48;;;;;;;16.60;4.95;;;13.70;99.90;;;;;;5094251;28;20272;-72
2022/11/10 10:49:25;;;;;;;12.35;4.65;;;13.80;99.90;;;;;;5094183;28;20177;-69
2022/11/10 10:52:12;;;;;;;14.60;4.68;;;13.80;99.90;;;;;;5094551;28;20526;-70
2022/11/10 10:54:39;;;;;;;16.10;4.68;;;13.70;99.90;;;;;;5094422;28;20191;-70
2022/11/10 10:57:27;;;;;;;12.02;4.43;;;13.50;99.90;;;;;;5093136;28;20196;-71
2022/11/10 11:00:17;;;;;;;13.55;4.60;;;13.40;99.90;;;;;;5094247;28;20157;-71
2022/11/10 11:02:42;;;;;;;10.45;4.07;;;13.30;99.90;;;;;;5094426;28;20196;-71
2022/11/10 11:05:17;;;;;;;13.93;4.30;;;13.20;99.90;;;;;;5094836;28;20162;-71
2022/11/10 11:08:01;;;;;;;15.90;4.97;;;13.20;99.90;;;;;;5090977;28;20212;-71
2022/11/10 11:10:31;;;;;;;11.82;5.45;;;13.20;99.90;;;;;;5074045;28;20166;-68
2022/11/10 11:13:12;;;;;;;16.20;4.82;;;13.40;99.90;;;;;;5074093;28;20634;-66
2022/11/10 11:15:37;;;;;;;17.52;4.63;;;13.60;99.90;;;;;;5073589;28;20208;-66
2022/11/10 11:18:13;;;;;;;17.88;4.75;;;13.70;99.90;;;;;;5071865;28;20573;-66
2022/11/10 11:21:04;;;;;;;15.05;4.13;;;13.80;99.90;;;;;;5072181;28;20227;-67
2022/11/10 11:23:48;;;;;;;12.18;4.22;;;13.90;99.90;;;;;;5073625;28;20170;-66
2022/11/10 11:26:48;;;;;;;14.20;4.50;;;13.90;99.90;;;;;;5073364;28;20166;-67
2022/11/10 11:29:20;;;;;;;14.25;4.30;;;13.80;99.90;;;;;;5073506;28;20181;-66
2022/11/10 11:32:19;;;;;;;11.57;4.07;;;13.90;99.90;;;;;;5073524;28;20166;-66
2022/11/10 11:35:13;;;;;;;12.65;4.20;;;13.90;99.90;;;;;;5073917;28;20154;-66
2022/11/10 11:37:44;;;;;;;8.77;3.88;;;14.10;99.90;;;;;;5071999;28;20288;-66
2022/11/10 11:40:26;;;;;;;12.32;4.10;;;14.40;99.90;;;;;;5073294;28;20197;-66
2022/11/10 11:43:06;;;;;;;11.13;4.05;;;14.50;99.90;;;;;;5073382;28;20157;-66
2022/11/10 11:45:53;;;;;;;13.18;3.90;;;14.40;99.90;;;;;;5073836;28;20603;-66
2022/11/10 11:48:19;;;;;;;11.48;4.40;;;14.40;99.90;;;;;;5073285;28;20189;-66
2022/11/10 11:51:04;;;;;;;7.60;4.97;;;14.40;99.90;;;;;;5073265;28;20538;-66
2022/11/10 11:53:39;;;;;;;12.48;4.25;;;14.40;99.90;;;;;;5073327;28;20195;-66
2022/11/10 11:56:15;;;;;;;15.40;4.47;;;14.20;99.90;;;;;;5072975;28;20189;-67
2022/11/10 11:58:45;;;;;;;13.20;4.38;;;14.10;99.90;;;;;;5073285;28;20157;-66
2022/11/10 12:01:30;;;;;;;13.75;4.55;;;13.80;99.90;;;;;;5073470;28;20641;-66
2022/11/10 12:04:20;;;;;;;9.82;4.65;;;13.70;99.90;;;;;;5071940;28;20173;-66
2022/11/10 12:07:04;;;;;;;9.80;3.90;;;13.80;99.90;;;;;;5073454;28;20650;-66
2022/11/10 12:09:52;;;;;;;13.88;4.18;;;13.80;99.90;;;;;;5073136;28;20217;-66
2022/11/10 12:12:32;;;;;;;11.75;4.32;;;13.90;99.90;;;;;;5073176;28;20166;-66
2022/11/10 12:14:58;;;;;;;11.20;4.18;;;14.00;99.90;;;;;;5071902;28;20173;-67
2022/11/10 12:17:24;;;;;;;17.05;4.20;;;14.20;99.90;;;;;;5073346;28;20193;-66
2022/11/10 12:20:15;;;;;;;14.88;4.22;;;14.40;99.90;;;;;;5071703;28;20212;-66
2022/11/10 12:23:02;;;;;;;12.93;4.22;;;14.40;99.90;;;;;;5071768;28;20219;-66
2022/11/10 12:25:46;;;;;;;11.88;4.30;;;14.20;99.90;;;;;;5072875;28;20174;-67
2022/11/10 12:28:30;;;;;;;12.73;4.65;;;14.20;99.90;;;;;;5072956;28;20200;-67
2022/11/10 12:31:00;;;;;;;12.00;4.47;;;14.40;99.90;;;;;;5075622;28;20505;-70
2022/11/10 12:33:58;;;;;;;12.82;3.97;;;14.70;99.90;;;;;;5077023;28;20166;-70
2022/11/10 12:36:27;;;;;;;11.60;3.85;;;14.90;99.90;;;;;;5071489;28;20224;-70
2022/11/10 12:39:24;;;;;;;13.75;3.88;;;15.10;99.90;;;;;;5076690;28;20177;-71
2022/11/10 12:41:57;;;;;;;11.60;3.88;;;15.30;99.90;;;;;;5076449;28;20154;-71
2022/11/10 12:45:05;;;;;;;12.20;3.83;;;15.40;99.90;;;;;;5076572;28;20158;-70
2022/11/10 12:47:40;;;;;;;11.82;4.38;;;15.50;99.90;;;;;;5074423;28;20209;-70
2022/11/10 12:50:32;;;;;;;9.30;4.10;;;15.40;99.90;;;;;;5074655;28;20571;-70
2022/11/10 12:53:19;;;;;;;7.95;4.00;;;15.40;99.90;;;;;;5075779;28;20198;-70
2022/11/10 12:55:55;;;;;;;13.25;3.95;;;15.20;99.90;;;;;;5076289;28;20182;-70
2022/11/10 12:58:22;;;;;;;18.02;4.55;;;15.00;99.90;;;;;;5075011;28;20284;-69
2022/11/10 13:01:01;;;;;;;9.48;3.50;;;14.90;99.90;;;;;;5076764;28;20159;-70